createdAt,value
2018-04-30T00:12:33.444Z,15.2
2018-04-30T00:29:16.591Z,15.2
2018-04-30T00:45:59.636Z,14.6
2018-04-30T00:59:21.479Z,13.9
2018-04-30T01:14:22.854Z,13.3
2018-04-30T01:31:04.037Z,13.0
2018-04-30T01:47:44.315Z,12.6
2018-04-30T02:04:24.933Z,12.3
2018-04-30T02:21:04.965Z,12.3
2018-04-30T02:37:45.004Z,12.0
2018-04-30T02:54:25.052Z,12.0
2018-04-30T03:11:05.091Z,12.0
2018-04-30T03:27:45.209Z,12.0
2018-04-30T03:44:25.400Z,12.0
2018-04-30T04:01:05.066Z,11.7
2018-04-30T04:17:45.076Z,12.0
2018-04-30T04:34:24.915Z,12.0
2018-04-30T04:51:05.197Z,12.0
2018-04-30T05:07:45.393Z,12.3
2018-04-30T05:24:25.785Z,12.3
2018-04-30T05:41:06.569Z,12.6
2018-04-30T05:57:47.442Z,13.0
2018-04-30T06:14:28.289Z,13.0
2018-04-30T06:31:09.142Z,13.0
2018-04-30T06:47:50.373Z,13.3
2018-04-30T07:04:31.914Z,13.3
2018-04-30T07:21:13.642Z,13.6
2018-04-30T07:34:35.362Z,14.2
2018-04-30T07:51:17.661Z,13.9
2018-04-30T08:07:59.870Z,13.9
2018-04-30T08:24:41.741Z,13.6
2018-04-30T08:41:23.257Z,13.3
2018-04-30T08:58:04.910Z,13.0
2018-04-30T09:14:45.927Z,13.0
2018-04-30T09:31:27.179Z,13.0
2018-04-30T09:48:08.218Z,13.0
2018-04-30T10:04:49.143Z,13.0
2018-04-30T10:21:30.431Z,13.3
2018-04-30T10:38:11.571Z,13.6
2018-04-30T10:48:12.656Z,14.2
2018-04-30T11:01:34.628Z,14.6
2018-04-30T11:14:56.677Z,14.9
2018-04-30T11:21:37.944Z,15.5
2018-04-30T11:28:19.567Z,16.2
2018-04-30T11:38:21.566Z,16.2
2018-04-30T11:55:05.096Z,15.5
2018-04-30T12:11:48.365Z,15.8
2018-04-30T12:25:11.244Z,15.8
2018-04-30T12:41:54.763Z,16.2
2018-04-30T12:55:18.021Z,16.8
2018-04-30T13:08:41.512Z,16.8
2018-04-30T13:25:25.876Z,16.2
2018-04-30T13:38:48.815Z,15.5
2018-04-30T13:55:32.186Z,15.8
2018-04-30T14:05:34.103Z,15.2
2018-04-30T14:22:17.049Z,15.2
2018-04-30T14:28:58.253Z,15.8
2018-04-30T14:45:41.877Z,16.2
2018-04-30T14:59:04.701Z,15.8
2018-04-30T15:09:06.672Z,15.2
2018-04-30T15:25:49.400Z,14.9
2018-04-30T15:42:31.960Z,14.9
2018-04-30T15:59:14.932Z,14.9
2018-04-30T16:15:57.371Z,14.9
2018-04-30T16:32:39.800Z,14.6
2018-04-30T16:49:22.123Z,14.2
2018-04-30T17:06:04.210Z,14.6
2018-04-30T17:16:05.286Z,13.9
2018-04-30T17:29:26.542Z,13.3
2018-04-30T17:46:07.761Z,13.0
2018-04-30T18:02:48.790Z,12.6
2018-04-30T18:19:29.457Z,13.0
2018-04-30T18:52:57.672Z,12.6
2018-04-30T19:09:31.777Z,12.3
2018-04-30T19:26:12.274Z,12.0
2018-04-30T19:42:52.257Z,11.4
2018-04-30T19:59:32.010Z,11.4
2018-04-30T20:16:11.795Z,11.4
2018-04-30T20:32:51.549Z,11.0
2018-04-30T20:42:51.301Z,10.7
2018-04-30T20:52:50.606Z,10.1
2018-04-30T21:02:49.869Z,9.4
2018-04-30T21:19:28.144Z,9.4
2018-04-30T21:36:06.635Z,9.4
2018-04-30T21:52:44.925Z,9.1
2018-04-30T22:09:23.307Z,8.5
2018-04-30T22:26:00.752Z,8.5
2018-04-30T22:42:38.429Z,8.2
2018-04-30T22:59:15.639Z,8.2
2018-04-30T23:15:53.149Z,8.2
2018-04-30T23:32:30.405Z,7.8
2018-04-30T23:49:07.384Z,7.5
